Time;durP1;ratioP1;P1;durP2;ratioP2;P2;SDS_P1;SDS_P2;PMS_P1;PMS_P2;Temp;Humidity;BMP_temperature;BMP_pressure;BME280_temperature;BME280_humidity;BME280_pressure;Samples;Min_cycle;Max_cycle;Signal;HPM_P1;HPM_P2
2022/11/10 00:02:14;;;;;;;15.50;11.27;;;;;;;8.19;95.63;99239.70;1651726;84;21019;-67
2022/11/10 00:04:41;;;;;;;17.40;13.33;;;;;;;8.16;95.70;99239.84;1662254;85;21892;-66
2022/11/10 00:07:08;;;;;;;18.92;12.40;;;;;;;8.14;95.72;99242.96;1653722;85;21425;-67
2022/11/10 00:09:34;;;;;;;17.77;12.75;;;;;;;8.14;95.80;99237.76;1656149;85;21928;-67
2022/11/10 00:12:01;;;;;;;11.68;10.05;;;;;;;8.12;95.85;99236.14;1655289;85;20967;-66
2022/11/10 00:17:11;;;;;;;11.85;10.00;;;;;;;8.11;95.89;99230.09;1625640;84;23289;-66
2022/11/10 00:19:38;;;;;;;13.20;9.08;;;;;;;8.10;95.70;99231.02;1633616;85;21499;-66
2022/11/10 00:22:05;;;;;;;14.58;11.55;;;;;;;8.06;95.83;99232.89;1641590;85;20987;-67
2022/11/10 00:24:32;;;;;;;15.38;10.98;;;;;;;8.06;95.90;99235.95;1635311;85;20980;-67
2022/11/10 00:26:58;;;;;;;14.13;10.93;;;;;;;8.06;95.80;99236.80;1653693;84;21516;-66
2022/11/10 00:29:25;;;;;;;10.15;8.90;;;;;;;8.06;95.89;99230.30;1631779;85;21167;-66
2022/11/10 00:31:51;;;;;;;19.92;10.98;;;;;;;8.06;95.83;99236.80;1645029;85;21070;-66
2022/11/10 00:34:18;;;;;;;16.37;11.93;;;;;;;8.06;95.89;99237.25;1638524;85;21635;-66
2022/11/10 00:36:45;;;;;;;12.20;9.60;;;;;;;8.06;95.84;99234.66;1635702;85;21042;-67
2022/11/10 00:39:11;;;;;;;14.13;10.38;;;;;;;8.04;95.76;99233.91;1658021;84;20899;-67
2022/11/10 00:41:38;;;;;;;15.20;10.72;;;;;;;8.01;95.72;99237.91;1641137;86;22038;-67
2022/11/10 00:44:04;;;;;;;13.58;10.25;;;;;;;7.98;95.81;99238.05;1650297;85;21013;-66
2022/11/10 00:46:31;;;;;;;12.43;8.58;;;;;;;7.97;95.87;99245.47;1654975;84;20980;-66
2022/11/10 00:48:58;;;;;;;15.55;10.80;;;;;;;7.98;95.92;99239.35;1660832;84;22146;-67
2022/11/10 00:51:28;;;;;;;16.10;10.53;;;;;;;7.97;95.92;99233.78;1660656;84;20965;-66
2022/11/10 00:53:55;;;;;;;14.83;10.13;;;;;;;7.94;96.04;99235.22;1659772;84;21254;-64
2022/11/10 00:56:22;;;;;;;;;;;;;;;7.97;96.04;99240.27;1694469;83;21010;-67
2022/11/10 00:58:49;;;;;;;13.70;7.80;;;;;;;7.96;96.19;99235.54;1694375;83;20134;-66
2022/11/10 01:01:17;;;;;;;12.98;9.98;;;;;;;7.97;96.21;99246.77;1684599;82;20901;-66
2022/11/10 01:03:44;;;;;;;13.90;9.98;;;;;;;7.98;96.20;99248.45;1679781;83;20971;-66
2022/11/10 01:06:14;;;;;;;11.80;8.20;;;;;;;7.94;96.35;99249.52;1673912;83;21420;-67
2022/11/10 01:08:42;;;;;;;13.62;9.48;;;;;;;7.95;96.49;99248.59;1679964;83;20951;-67
2022/11/10 01:11:16;;;;;;;13.08;10.13;;;;;;;7.97;96.54;99249.38;1682891;84;20982;-67
2022/11/10 01:13:44;;;;;;;13.75;9.13;;;;;;;7.99;96.57;99263.16;1678012;83;21429;-66
2022/11/10 01:16:16;;;;;;;13.60;9.43;;;;;;;8.00;96.68;99255.27;1687889;83;21495;-66
2022/11/10 01:18:42;;;;;;;12.07;7.47;;;;;;;8.03;96.69;99258.20;1679575;84;21242;-66
2022/11/10 01:21:09;;;;;;;12.60;8.70;;;;;;;8.04;96.77;99257.30;1674170;83;20912;-66
2022/11/10 01:23:36;;;;;;;14.07;9.93;;;;;;;8.06;96.71;99259.36;1687376;83;20887;-66
2022/11/10 01:26:06;;;;;;;12.93;7.65;;;;;;;8.08;96.79;99258.84;1690711;82;20960;-66
2022/11/10 01:28:35;;;;;;;13.60;9.33;;;;;;;8.10;96.78;99255.73;1669811;84;21566;-66
2022/11/10 01:31:08;;;;;;;9.30;7.62;;;;;;;8.13;96.72;99258.65;1667373;84;21873;-66
2022/11/10 01:33:35;;;;;;;14.20;9.55;;;;;;;8.14;96.61;99257.27;1693392;83;20926;-66
2022/11/10 01:36:02;;;;;;;12.78;7.05;;;;;;;8.14;96.51;99265.06;1676685;84;20942;-67
2022/11/10 01:38:30;;;;;;;;;;;;;;;8.14;96.55;99265.06;1696505;83;20997;-67
2022/11/10 01:40:58;;;;;;;13.25;9.33;;;;;;;8.15;96.65;99261.57;1682516;84;20092;-66
2022/11/10 01:43:25;;;;;;;11.08;7.03;;;;;;;8.15;96.71;99261.57;1682822;84;21057;-66
2022/11/10 01:46:03;;;;;;;12.13;8.98;;;;;;;8.16;96.74;99255.45;1666340;84;20886;-66
2022/11/10 01:48:38;;;;;;;10.32;7.55;;;;;;;8.17;96.87;99259.72;1684612;83;20969;-66
2022/11/10 01:51:37;;;;;;;15.43;8.05;;;;;;;8.18;96.88;99258.83;1693663;84;20942;-66
2022/11/10 01:54:09;;;;;;;13.18;8.23;;;;;;;8.19;96.93;99272.21;1670153;84;20998;-66
2022/11/10 01:56:41;;;;;;;12.80;8.55;;;;;;;8.20;96.99;99269.98;1667534;84;21679;-66
2022/11/10 01:59:14;;;;;;;12.63;8.30;;;;;;;8.19;97.00;99273.52;1698427;84;21010;-67
2022/11/10 02:01:41;;;;;;;13.08;8.68;;;;;;;8.22;96.91;99275.97;1679748;84;20926;-66
2022/11/10 02:04:12;;;;;;;9.83;6.85;;;;;;;8.20;97.00;99269.98;1691585;84;21953;-66
2022/11/10 02:06:42;;;;;;;12.50;8.43;;;;;;;8.20;97.02;99272.59;1665794;84;21451;-66
2022/11/10 02:09:09;;;;;;;10.10;6.37;;;;;;;8.21;97.00;99270.86;1685664;84;21916;-66
2022/11/10 02:11:38;;;;;;;8.38;6.20;;;;;;;8.20;97.00;99267.38;1682426;84;21084;-66
2022/11/10 02:14:05;;;;;;;15.75;8.05;;;;;;;8.21;97.08;99273.45;1684724;84;20942;-67
2022/11/10 02:16:32;;;;;;;13.30;9.13;;;;;;;8.23;97.03;99272.91;1679533;84;20983;-66
2022/11/10 02:19:19;;;;;;;8.05;5.75;;;;;;;8.22;96.98;99270.77;1672176;84;21499;-66
2022/11/10 02:21:46;;;;;;;10.72;7.60;;;;;;;8.23;96.98;99268.58;1683022;84;21054;-66
2022/11/10 02:24:13;;;;;;;7.10;5.50;;;;;;;8.23;97.00;99263.38;1685581;84;20986;-66
2022/11/10 02:26:52;;;;;;;7.67;5.87;;;;;;;8.24;97.09;99271.55;1689355;84;22501;-66
2022/11/10 02:29:20;;;;;;;10.00;7.25;;;;;;;8.25;97.16;99266.73;1691506;83;21441;-66
2022/11/10 02:31:46;;;;;;;8.43;7.00;;;;;;;8.26;97.17;99269.73;1699667;84;21014;-66
2022/11/10 02:34:13;;;;;;;12.10;8.40;;;;;;;8.26;97.18;99268.87;1691704;83;21924;-67
2022/11/10 02:36:40;;;;;;;18.25;8.20;;;;;;;8.27;97.22;99268.81;1689728;84;20988;-66
2022/11/10 02:39:07;;;;;;;6.00;5.40;;;;;;;8.29;97.29;99272.20;1695737;83;21440;-66
2022/11/10 02:41:34;;;;;;;13.68;7.72;;;;;;;8.32;97.25;99261.24;1671505;84;21001;-66
2022/11/10 02:44:02;;;;;;;9.47;6.40;;;;;;;8.31;97.23;99264.31;1698704;83;20962;-66
2022/11/10 02:46:28;;;;;;;12.10;6.12;;;;;;;8.33;97.31;99265.55;1688528;84;22425;-66
2022/11/10 02:48:55;;;;;;;6.83;6.03;;;;;;;8.34;97.35;99268.53;1693669;84;21551;-66
2022/11/10 02:51:22;;;;;;;10.57;6.97;;;;;;;8.35;97.29;99268.94;1665578;84;20988;-66
2022/11/10 02:53:49;;;;;;;9.10;5.90;;;;;;;8.35;97.30;99274.14;1667839;85;20975;-67
2022/11/10 02:56:15;;;;;;;8.57;5.40;;;;;;;8.34;97.25;99280.23;1670272;85;20974;-66
2022/11/10 02:58:42;;;;;;;8.48;6.75;;;;;;;8.35;97.25;99278.05;1643257;87;21210;-67
2022/11/10 03:01:09;;;;;;;8.10;5.50;;;;;;;8.34;97.29;99278.47;1649995;85;21025;-66
2022/11/10 03:03:36;;;;;;;9.20;5.13;;;;;;;8.34;97.28;99276.33;1653879;85;20986;-66
2022/11/10 03:06:03;;;;;;;9.45;6.25;;;;;;;8.37;97.23;99280.09;1659426;85;20979;-66
2022/11/10 03:08:29;;;;;;;9.55;6.15;;;;;;;8.36;97.24;99277.12;1651966;85;21065;-66
2022/11/10 03:10:57;;;;;;;8.90;5.50;;;;;;;8.34;97.20;99284.97;1660749;85;21067;-66
2022/11/10 03:13:25;;;;;;;7.45;5.78;;;;;;;8.35;97.15;99291.05;1662451;85;21035;-66
2022/11/10 03:15:52;;;;;;;11.68;6.60;;;;;;;8.32;97.23;99292.03;1672466;85;21516;-66
2022/11/10 03:18:19;;;;;;;9.73;4.67;;;;;;;8.31;97.34;99290.32;1654101;84;21837;-67
2022/11/10 03:20:48;;;;;;;11.60;7.00;;;;;;;8.34;97.26;99289.34;1678484;84;20992;-66
2022/11/10 03:23:16;;;;;;;7.58;5.50;;;;;;;8.34;97.13;99291.94;1643653;85;21241;-66
2022/11/10 03:25:43;;;;;;;9.20;6.67;;;;;;;8.30;97.07;99290.78;1638967;86;20965;-66
2022/11/10 03:28:11;;;;;;;7.62;5.40;;;;;;;8.28;97.07;99296.50;1656930;85;21470;-67
2022/11/10 03:30:39;;;;;;;9.55;7.28;;;;;;;8.26;97.01;99295.75;1660474;85;20982;-66
2022/11/10 03:33:06;;;;;;;8.03;5.53;;;;;;;8.24;96.99;99300.16;1672844;85;21536;-66
2022/11/10 03:35:33;;;;;;;8.48;6.53;;;;;;;8.24;97.00;99302.77;1634913;87;21838;-66
2022/11/10 03:37:59;;;;;;;7.15;5.50;;;;;;;8.21;97.04;99308.56;1650328;85;20990;-66
2022/11/10 03:40:26;;;;;;;6.03;4.50;;;;;;;8.20;97.11;99307.70;1673410;85;20900;-66
2022/11/10 03:42:53;;;;;;;7.07;5.27;;;;;;;8.20;97.18;99306.40;1655765;85;21533;-66
2022/11/10 03:45:20;;;;;;;10.35;6.15;;;;;;;8.18;97.21;99305.64;1646247;85;20931;-66
2022/11/10 03:47:48;;;;;;;8.80;6.08;;;;;;;8.17;97.22;99303.94;1655037;85;21053;-66
2022/11/10 03:50:16;;;;;;;9.73;5.65;;;;;;;8.18;97.26;99308.24;1675632;84;20967;-67
2022/11/10 03:52:44;;;;;;;;;;;;;;;8.17;97.27;99313.03;1652647;85;21014;-67
2022/11/10 03:55:16;;;;;;;7.53;5.12;;;;;;;8.17;97.24;99307.83;1648598;85;20580;-67
2022/11/10 03:57:44;;;;;;;15.53;7.12;;;;;;;8.16;97.26;99312.66;1673705;85;20912;-67
2022/11/10 04:00:12;;;;;;;7.42;5.50;;;;;;;8.15;97.28;99318.78;1654912;85;21462;-66
2022/11/10 04:02:39;;;;;;;11.33;6.28;;;;;;;8.17;97.19;99318.70;1649249;85;21503;-67
2022/11/10 04:10:48;;;;;;;9.68;5.87;;;;;;;8.20;97.42;99334.17;1667655;85;21591;-66
2022/11/10 04:16:00;;;;;;;9.35;6.78;;;;;;;8.27;97.47;99326.03;1660728;85;20998;-66
2022/11/10 04:18:28;;;;;;;6.78;4.85;;;;;;;8.28;97.54;99329.02;1650483;85;20930;-66
2022/11/10 04:21:00;;;;;;;6.33;5.50;;;;;;;8.29;97.53;99326.82;1663499;85;20952;-66
2022/11/10 04:23:33;;;;;;;7.47;4.33;;;;;;;8.34;97.50;99330.96;1641308;85;20959;-66
2022/11/10 04:28:53;;;;;;;5.50;4.62;;;;;;;8.39;97.57;99325.14;1654092;85;20925;-66
2022/11/10 04:31:22;;;;;;;7.17;5.12;;;;;;;8.39;97.61;99330.34;1662306;85;20895;-66
2022/11/10 04:33:50;;;;;;;7.05;4.05;;;;;;;8.40;97.52;99335.48;1675447;84;20943;-67
2022/11/10 04:36:20;;;;;;;6.42;4.35;;;;;;;8.41;97.57;99333.72;1668137;85;21068;-66
2022/11/10 04:38:47;;;;;;;8.15;5.33;;;;;;;8.43;97.51;99335.78;1674676;85;21055;-67
2022/11/10 04:41:14;;;;;;;5.70;4.22;;;;;;;8.43;97.61;99331.45;1650316;85;21021;-67
2022/11/10 04:43:41;;;;;;;5.22;4.00;;;;;;;8.45;97.55;99332.66;1657460;85;21517;-66
2022/11/10 04:46:16;;;;;;;6.33;4.05;;;;;;;8.45;97.52;99339.16;1675602;84;20963;-67
2022/11/10 04:48:42;;;;;;;9.48;4.17;;;;;;;8.44;97.49;99333.59;1646859;85;21014;-66
2022/11/10 04:51:10;;;;;;;6.05;4.42;;;;;;;8.46;97.44;99333.06;1664280;85;21877;-66
2022/11/10 04:53:36;;;;;;;;;;;;;;;8.46;97.38;99333.06;1680825;85;20942;-67
2022/11/10 04:56:03;;;;;;;7.22;4.53;;;;;;;8.47;97.35;99338.65;1688127;84;20409;-66
2022/11/10 04:58:30;;;;;;;5.30;4.17;;;;;;;8.47;97.35;99334.74;1674093;85;21551;-66
2022/11/10 05:00:57;;;;;;;6.62;5.28;;;;;;;8.46;97.50;99338.27;1681321;84;21423;-66
2022/11/10 05:03:25;;;;;;;5.67;4.40;;;;;;;8.49;97.45;99340.73;1683663;84;21041;-67
2022/11/10 05:05:52;;;;;;;8.13;4.45;;;;;;;8.47;97.55;99339.95;1658455;85;20891;-66
2022/11/10 05:08:18;;;;;;;10.43;4.23;;;;;;;8.50;97.51;99342.41;1675622;85;21016;-66
2022/11/10 05:10:45;;;;;;;7.43;3.67;;;;;;;8.50;97.59;99341.11;1685240;83;21489;-66
2022/11/10 05:13:12;;;;;;;5.97;3.50;;;;;;;8.53;97.56;99339.67;1672500;85;23645;-66
2022/11/10 05:15:40;;;;;;;5.08;3.20;;;;;;;8.54;97.61;99349.16;1686463;85;21006;-66
2022/11/10 05:18:07;;;;;;;7.03;3.80;;;;;;;8.55;97.61;99350.86;1676239;85;20948;-67
2022/11/10 05:20:33;;;;;;;4.77;3.50;;;;;;;8.56;97.52;99349.09;1685271;84;21041;-66
2022/11/10 05:25:45;;;;;;;6.15;3.50;;;;;;;8.51;97.37;99359.70;1683220;85;21076;-66
2022/11/10 05:28:12;;;;;;;6.80;3.30;;;;;;;8.49;97.33;99357.64;1659716;85;21131;-66
2022/11/10 05:30:39;;;;;;;5.10;3.20;;;;;;;8.48;97.55;99359.84;1673119;85;20954;-66
2022/11/10 05:33:06;;;;;;;5.12;3.22;;;;;;;8.48;97.47;99362.44;1683962;84;21049;-66
2022/11/10 05:35:34;;;;;;;7.87;4.12;;;;;;;8.48;97.42;99366.34;1643637;86;20980;-66
2022/11/10 05:38:01;;;;;;;5.75;3.45;;;;;;;8.45;97.49;99374.29;1670444;85;20975;-66
2022/11/10 05:40:29;;;;;;;7.53;4.42;;;;;;;8.43;97.44;99380.00;1668054;85;21501;-66
2022/11/10 05:42:56;;;;;;;6.53;4.20;;;;;;;8.41;97.41;99375.34;1674191;85;20947;-66
2022/11/10 05:45:26;;;;;;;5.08;3.05;;;;;;;8.40;97.38;99375.81;1667863;83;21481;-66
2022/11/10 05:47:53;;;;;;;5.33;3.92;;;;;;;8.40;97.47;99385.34;1686311;85;21503;-66
2022/11/10 05:50:21;;;;;;;6.08;3.10;;;;;;;8.39;97.45;99383.67;1654560;85;21528;-67
2022/11/10 05:52:51;;;;;;;8.50;4.03;;;;;;;8.35;97.44;99395.10;1653578;85;21133;-66
2022/11/10 05:55:21;;;;;;;5.50;3.92;;;;;;;8.33;97.42;99397.76;1670405;85;21515;-66
2022/11/10 05:57:52;;;;;;;7.10;4.37;;;;;;;8.30;97.43;99400.49;1679498;84;21140;-66
2022/11/10 06:00:24;;;;;;;6.50;3.90;;;;;;;8.27;97.73;99404.06;1680904;84;20927;-66
2022/11/10 06:03:06;;;;;;;7.15;4.58;;;;;;;8.28;97.96;99410.11;1664684;85;20967;-66
2022/11/10 06:05:35;;;;;;;6.30;4.00;;;;;;;8.30;98.08;99418.70;1677097;85;21160;-66
2022/11/10 06:08:04;;;;;;;6.20;3.50;;;;;;;8.39;97.74;99418.79;1651625;85;20944;-66
2022/11/10 06:10:32;;;;;;;8.05;3.60;;;;;;;8.39;97.67;99425.30;1649050;86;20924;-66
2022/11/10 06:12:59;;;;;;;6.92;4.45;;;;;;;8.40;97.62;99426.97;1664549;84;20931;-66
2022/11/10 06:15:26;;;;;;;6.95;3.95;;;;;;;8.41;97.66;99428.69;1682024;85;21457;-64
2022/11/10 06:17:54;;;;;;;5.80;3.27;;;;;;;8.42;97.59;99435.56;1678427;83;21103;-66
2022/11/10 06:20:21;;;;;;;;;;;;;;;8.44;97.52;99433.75;1658738;85;21000;-66
2022/11/10 06:23:05;;;;;;;7.12;3.90;;;;;;;8.45;97.46;99439.33;1678003;83;20661;-65
2022/11/10 06:25:34;;;;;;;6.53;4.40;;;;;;;8.45;97.51;99447.14;1647493;85;21111;-65
2022/11/10 06:28:02;;;;;;;7.12;3.77;;;;;;;8.44;97.50;99446.77;1670501;85;20957;-66
2022/11/10 06:30:31;;;;;;;5.35;3.25;;;;;;;8.46;97.51;99452.75;1680091;84;21351;-66
2022/11/10 06:32:58;;;;;;;5.60;4.03;;;;;;;8.48;97.55;99460.02;1681886;83;20895;-65
2022/11/10 06:35:25;;;;;;;6.45;3.50;;;;;;;8.48;97.56;99461.31;1679687;85;20908;-66
2022/11/10 06:38:01;;;;;;;;;;;;;;;8.49;97.55;99470.83;1684393;85;20982;-66
2022/11/10 06:40:28;;;;;;;5.67;3.35;;;;;;;8.52;97.63;99475.91;1676470;85;20127;-66
2022/11/10 06:42:55;;;;;;;;;;;;;;;8.54;97.69;99474.06;1659258;84;21957;-66
2022/11/10 06:45:27;;;;;;;5.22;3.42;;;;;;;8.59;97.71;99479.08;1653566;85;20159;-66
2022/11/10 06:48:10;;;;;;;10.50;3.17;;;;;;;8.62;97.74;99479.78;1662249;85;21043;-66
2022/11/10 06:50:37;;;;;;;6.50;3.60;;;;;;;8.67;97.83;99490.00;1677631;85;20903;-66
2022/11/10 06:53:04;;;;;;;5.03;3.70;;;;;;;8.73;97.73;99487.97;1677215;84;20938;-66
2022/11/10 06:55:31;;;;;;;5.72;3.12;;;;;;;8.78;97.73;99496.05;1695158;84;21115;-66
2022/11/10 06:58:00;;;;;;;7.85;3.45;;;;;;;8.83;97.71;99495.41;1698518;83;20939;-66
2022/11/10 07:00:28;;;;;;;4.62;3.17;;;;;;;8.84;97.74;99500.52;1669648;84;20968;-66
2022/11/10 07:03:13;;;;;;;6.37;3.30;;;;;;;8.89;97.61;99502.94;1685582;83;21453;-66
2022/11/10 07:05:40;;;;;;;5.70;3.70;;;;;;;8.89;97.50;99508.14;1694757;84;21072;-66
2022/11/10 07:08:15;;;;;;;3.47;3.13;;;;;;;8.89;97.69;99510.75;1684190;83;22319;-66
2022/11/10 07:10:43;;;;;;;6.67;4.00;;;;;;;8.90;97.82;99513.73;1671387;84;20922;-66
2022/11/10 07:13:10;;;;;;;5.20;2.70;;;;;;;8.91;97.83;99514.98;1673436;84;20922;-66
2022/11/10 07:15:37;;;;;;;4.33;3.05;;;;;;;8.94;97.73;99514.00;1695094;83;21550;-66
2022/11/10 07:18:04;;;;;;;5.27;2.73;;;;;;;8.94;97.69;99521.81;1687933;84;21016;-66
2022/11/10 07:20:31;;;;;;;6.50;3.12;;;;;;;8.97;97.52;99526.89;1693314;83;22161;-66
2022/11/10 07:23:01;;;;;;;5.95;2.90;;;;;;;9.02;98.01;99537.08;1695330;83;20958;-67
2022/11/10 07:25:31;;;;;;;3.83;3.00;;;;;;;9.08;98.11;99535.08;1687443;83;21483;-68
2022/11/10 07:28:00;;;;;;;6.90;2.90;;;;;;;9.18;98.09;99536.34;1697505;83;20997;-67
2022/11/10 07:30:28;;;;;;;5.55;2.83;;;;;;;9.31;98.26;99540.55;1698121;83;21508;-66
2022/11/10 07:33:02;;;;;;;3.00;2.70;;;;;;;9.48;98.41;99555.43;1685627;83;21064;-66
2022/11/10 07:35:30;;;;;;;7.40;3.52;;;;;;;9.57;98.21;99553.70;1699682;83;20983;-66
2022/11/10 07:37:57;;;;;;;;;;;;;;;9.63;97.92;99552.14;1673885;84;20967;-66
2022/11/10 07:40:24;;;;;;;;;;;;;;;9.68;97.86;99552.37;1698907;84;20150;-67
2022/11/10 07:42:50;;;;;;;7.67;4.15;;;;;;;9.71;97.71;99560.89;1671687;84;20173;-67
2022/11/10 07:45:17;;;;;;;7.13;2.60;;;;;;;9.67;97.74;99568.94;1670560;84;21167;-66
2022/11/10 07:47:44;;;;;;;5.33;2.70;;;;;;;9.67;97.70;99567.64;1670413;84;21771;-66
2022/11/10 07:50:11;;;;;;;4.10;2.55;;;;;;;9.66;97.86;99578.96;1670695;84;20971;-66
2022/11/10 07:52:37;;;;;;;4.28;2.65;;;;;;;9.68;97.96;99568.02;1676598;84;21017;-67
2022/11/10 07:55:06;;;;;;;5.30;3.20;;;;;;;9.71;98.09;99567.87;1682308;84;20923;-68
2022/11/10 07:57:32;;;;;;;7.33;3.02;;;;;;;9.79;98.39;99570.97;1661217;85;21449;-68
2022/11/10 07:59:59;;;;;;;5.97;2.77;;;;;;;9.93;98.25;99575.08;1681998;85;20962;-66
2022/11/10 08:02:26;;;;;;;6.70;3.10;;;;;;;10.01;98.06;99576.88;1665704;85;21035;-67
2022/11/10 08:04:53;;;;;;;4.72;2.75;;;;;;;10.08;98.09;99574.80;1662239;85;20962;-68
2022/11/10 08:07:20;;;;;;;5.60;2.53;;;;;;;10.16;98.36;99579.66;1664697;85;20902;-67
2022/11/10 08:09:46;;;;;;;5.00;3.27;;;;;;;10.26;98.25;99587.45;1682421;83;21043;-67
2022/11/10 08:12:13;;;;;;;4.53;2.73;;;;;;;10.36;98.29;99587.41;1666976;85;21464;-66
2022/11/10 08:14:39;;;;;;;7.53;3.17;;;;;;;10.51;98.16;99589.28;1679743;85;20934;-67
2022/11/10 08:17:06;;;;;;;5.37;3.13;;;;;;;10.62;98.00;99591.37;1670168;85;20928;-68
2022/11/10 08:19:33;;;;;;;8.45;2.83;;;;;;;10.69;97.79;99597.13;1664304;85;21552;-67
2022/11/10 08:21:59;;;;;;;3.70;2.53;;;;;;;10.66;97.79;99602.50;1682098;84;21035;-67
2022/11/10 08:24:26;;;;;;;3.73;2.40;;;;;;;10.63;97.54;99609.18;1668975;85;21489;-67
2022/11/10 08:26:53;;;;;;;4.23;2.13;;;;;;;10.56;97.65;99609.08;1676706;84;21453;-67
2022/11/10 08:29:20;;;;;;;3.92;2.25;;;;;;;10.57;97.84;99610.80;1659672;85;21537;-66
2022/11/10 08:31:46;;;;;;;5.22;2.35;;;;;;;10.56;97.74;99620.39;1650770;85;21053;-67
2022/11/10 08:34:13;;;;;;;6.63;2.50;;;;;;;10.58;97.77;99622.91;1670815;84;21823;-66
2022/11/10 08:36:40;;;;;;;5.47;2.50;;;;;;;10.61;97.82;99629.29;1676190;85;20879;-66
2022/11/10 08:39:07;;;;;;;3.90;2.10;;;;;;;10.65;97.80;99632.16;1663361;85;20968;-66
2022/11/10 08:41:34;;;;;;;5.33;2.15;;;;;;;10.64;97.73;99627.83;1678763;84;21053;-66
2022/11/10 08:44:00;;;;;;;6.07;2.10;;;;;;;10.62;97.51;99645.36;1661773;85;21422;-66
2022/11/10 08:46:27;;;;;;;7.45;2.37;;;;;;;10.59;97.56;99638.98;1652600;86;21854;-66
2022/11/10 08:48:54;;;;;;;6.47;2.30;;;;;;;10.60;97.44;99647.19;1679444;85;20944;-66
2022/11/10 08:51:21;;;;;;;6.00;2.17;;;;;;;10.53;97.31;99645.35;1655720;85;21613;-66
2022/11/10 08:53:48;;;;;;;3.95;1.85;;;;;;;10.61;97.37;99647.56;1662283;84;20970;-66
2022/11/10 08:56:14;;;;;;;5.25;2.45;;;;;;;10.63;97.17;99644.43;1669980;83;21382;-66
2022/11/10 08:58:41;;;;;;;6.65;2.20;;;;;;;10.61;97.46;99652.32;1701487;83;21273;-66
2022/11/10 09:01:11;;;;;;;3.57;1.93;;;;;;;10.66;97.54;99657.33;1670929;84;20985;-65
2022/11/10 09:03:38;;;;;;;6.45;1.75;;;;;;;10.77;97.71;99652.43;1637487;84;21061;-66
2022/11/10 09:06:05;;;;;;;4.47;1.98;;;;;;;10.90;97.71;99656.14;1694448;83;20997;-66
2022/11/10 09:08:32;;;;;;;2.62;1.70;;;;;;;10.96;97.72;99653.21;1687175;83;21005;-66
2022/11/10 09:11:03;;;;;;;5.10;2.20;;;;;;;11.13;97.88;99648.91;1695702;83;21515;-67
2022/11/10 09:13:30;;;;;;;2.98;1.40;;;;;;;11.26;97.57;99663.05;1697242;84;20954;-66
2022/11/10 09:16:02;;;;;;;;;;;;;;;11.32;97.07;99662.73;1676004;84;20939;-66
2022/11/10 09:18:29;;;;;;;3.30;1.42;;;;;;;11.25;96.77;99670.49;1666660;84;20117;-66
2022/11/10 09:20:56;;;;;;;4.03;1.50;;;;;;;11.21;96.94;99670.28;1688675;83;20899;-66
2022/11/10 09:23:23;;;;;;;3.40;1.40;;;;;;;11.20;96.95;99675.10;1676863;84;21947;-66
2022/11/10 09:25:52;;;;;;;;;;;;;;;11.27;97.23;99676.96;1691025;84;20942;-67
2022/11/10 09:28:21;;;;;;;3.55;1.80;;;;;;;11.29;96.88;99692.95;1698579;84;20115;-66
2022/11/10 09:30:50;;;;;;;3.85;1.40;;;;;;;11.19;96.47;99695.63;1664355;85;21001;-66
2022/11/10 09:33:17;;;;;;;6.00;1.85;;;;;;;11.07;96.35;99700.17;1667925;84;21031;-66
2022/11/10 09:35:44;;;;;;;3.80;1.65;;;;;;;10.97;96.54;99704.53;1663508;85;21037;-68
2022/11/10 09:38:11;;;;;;;5.33;2.27;;;;;;;10.95;96.77;99711.62;1667198;85;26935;-66
2022/11/10 09:41:04;;;;;;;4.03;1.57;;;;;;;10.98;96.92;99711.47;1666208;85;21637;-66
2022/11/10 09:43:42;;;;;;;4.17;1.30;;;;;;;11.04;96.82;99712.09;1663344;85;21545;-66
2022/11/10 09:46:21;;;;;;;3.72;1.30;;;;;;;11.10;96.69;99717.01;1666452;85;21016;-66
2022/11/10 09:49:01;;;;;;;2.40;1.20;;;;;;;11.10;96.69;99717.01;1665286;84;21050;-66
2022/11/10 09:51:33;;;;;;;3.58;1.10;;;;;;;11.19;96.79;99716.08;1662417;84;21011;-66
2022/11/10 09:54:14;;;;;;;1.87;0.90;;;;;;;11.22;96.73;99724.23;1670687;84;21011;-66
2022/11/10 09:56:40;;;;;;;2.45;1.00;;;;;;;11.22;96.73;99724.23;1671509;84;21065;-66
2022/11/10 09:59:15;;;;;;;2.42;0.95;;;;;;;11.35;97.00;99727.92;1666218;85;20956;-66
2022/11/10 10:02:05;;;;;;;2.00;0.90;;;;;;;11.50;96.85;99735.91;1677687;85;21106;-67
2022/11/10 10:04:57;;;;;;;1.30;0.80;;;;;;;11.64;96.71;99733.44;1664849;84;20932;-66
2022/11/10 10:07:43;;;;;;;1.57;0.70;;;;;;;11.76;96.49;99732.82;1667350;85;21470;-66
2022/11/10 10:10:30;;;;;;;2.95;0.70;;;;;;;11.86;96.67;99736.66;1669618;85;21027;-66
2022/11/10 10:13:05;;;;;;;2.80;0.95;;;;;;;11.93;96.11;99742.87;1661721;84;20944;-66
2022/11/10 10:15:58;;;;;;;2.22;1.00;;;;;;;11.91;96.21;99740.83;1663972;84;21045;-66
2022/11/10 10:19:06;;;;;;;1.60;1.02;;;;;;;11.82;95.65;99744.27;1668293;84;21493;-66
2022/11/10 10:21:52;;;;;;;1.75;0.70;;;;;;;11.32;95.32;99728.08;1635941;87;20975;-66
2022/11/10 10:24:21;;;;;;;1.17;0.57;;;;;;;11.32;95.32;99728.08;1613234;87;21727;-67
2022/11/10 10:26:52;;;;;;;2.52;0.75;;;;;;;11.21;95.49;99757.83;1582575;89;20954;-69
2022/11/10 10:29:24;;;;;;;2.02;0.85;;;;;;;10.94;95.89;99758.70;1601526;88;21648;-67
2022/11/10 10:31:52;;;;;;;2.22;0.68;;;;;;;10.94;95.89;99758.70;1600300;88;20968;-67
2022/11/10 10:34:29;;;;;;;4.78;0.88;;;;;;;10.87;95.85;99756.86;1603718;88;21048;-66
2022/11/10 10:36:56;;;;;;;3.30;0.90;;;;;;;10.80;95.96;99754.13;1602309;87;20975;-67
2022/11/10 10:39:41;;;;;;;1.30;0.70;;;;;;;10.77;96.04;99769.95;1604955;87;20985;-67
2022/11/10 10:42:25;;;;;;;5.87;0.82;;;;;;;10.78;96.22;99776.02;1604129;87;21911;-68
2022/11/10 10:45:14;;;;;;;3.90;0.88;;;;;;;10.94;96.74;99772.60;1607086;88;21051;-67
2022/11/10 10:47:42;;;;;;;2.72;1.35;;;;;;;11.22;96.78;99776.50;1602390;88;20934;-66
2022/11/10 10:50:23;;;;;;;;;;;;;;;11.28;96.41;99757.89;1601794;88;21018;-65
2022/11/10 10:53:17;;;;;;;3.55;0.85;;;;;;;11.52;96.19;99774.60;1611859;87;20125;-65
2022/11/10 10:56:07;;;;;;;2.05;0.80;;;;;;;11.58;96.01;99784.28;1629644;86;21264;-66
2022/11/10 10:58:55;;;;;;;3.35;0.93;;;;;;;11.59;96.00;99785.13;1595184;88;21063;-64
2022/11/10 11:01:35;;;;;;;2.20;0.75;;;;;;;11.55;95.59;99786.22;1661627;83;20977;-65
2022/11/10 11:04:26;;;;;;;1.70;0.80;;;;;;;11.45;95.42;99783.20;1688348;83;21532;-65
2022/11/10 11:07:04;;;;;;;1.75;0.65;;;;;;;11.25;95.17;99789.41;1680159;83;20979;-66
2022/11/10 11:09:42;;;;;;;2.02;0.70;;;;;;;10.88;95.35;99804.25;1689408;83;21060;-66
2022/11/10 11:12:23;;;;;;;4.33;1.17;;;;;;;10.88;95.35;99804.25;1685981;83;20950;-66
2022/11/10 11:14:49;;;;;;;2.83;0.90;;;;;;;10.79;95.87;99792.94;1698002;84;21139;-66
2022/11/10 11:17:21;;;;;;;5.22;1.37;;;;;;;10.79;95.87;99792.94;1691340;83;20955;-66
2022/11/10 11:19:53;;;;;;;7.60;1.55;;;;;;;10.93;96.04;99812.72;1698471;84;20986;-65
2022/11/10 11:22:40;;;;;;;3.77;1.25;;;;;;;10.93;96.04;99812.72;1671501;84;21667;-66
2022/11/10 11:25:32;;;;;;;5.37;1.45;;;;;;;10.83;95.96;99787.94;1688238;83;28625;-66
2022/11/10 11:28:09;;;;;;;3.30;1.20;;;;;;;10.97;96.09;99808.19;1649687;86;21553;-66
2022/11/10 11:31:00;;;;;;;6.03;1.30;;;;;;;11.04;96.22;99799.62;1613502;87;20956;-65
2022/11/10 11:33:46;;;;;;;4.92;1.60;;;;;;;11.21;96.13;99814.02;1642362;86;21230;-65
2022/11/10 11:36:24;;;;;;;6.75;1.20;;;;;;;11.18;95.92;99798.48;1644396;86;21069;-65
2022/11/10 11:39:12;;;;;;;5.58;1.50;;;;;;;11.36;95.89;99823.72;1618576;87;21544;-65
2022/11/10 11:41:47;;;;;;;8.70;2.35;;;;;;;11.34;95.90;99822.97;1617322;87;21500;-66
2022/11/10 11:44:37;;;;;;;6.30;1.82;;;;;;;11.36;95.67;99823.72;1639901;86;21082;-66
2022/11/10 11:47:40;;;;;;;10.38;2.40;;;;;;;11.31;95.19;99829.62;1639220;86;21057;-65
2022/11/10 11:50:33;;;;;;;7.75;1.55;;;;;;;11.31;95.19;99829.62;1616054;87;21137;-65
2022/11/10 11:53:11;;;;;;;10.90;2.70;;;;;;;11.21;95.26;99842.77;1646961;86;22118;-65
2022/11/10 11:56:20;;;;;;;4.85;1.35;;;;;;;11.20;95.38;99843.23;1642722;86;21065;-66
2022/11/10 11:59:19;;;;;;;8.85;1.62;;;;;;;11.21;95.65;99838.85;1617930;87;20982;-65
2022/11/10 12:02:21;;;;;;;10.20;1.92;;;;;;;11.31;95.69;99859.69;1648993;85;21481;-65
2022/11/10 12:04:55;;;;;;;10.25;2.20;;;;;;;11.34;95.56;99841.27;1699156;84;20970;-65
2022/11/10 12:07:41;;;;;;;4.85;1.42;;;;;;;11.45;95.08;99855.09;1686062;84;20966;-66
2022/11/10 12:10:15;;;;;;;8.48;1.82;;;;;;;11.46;95.26;99858.12;1690749;83;20961;-65
2022/11/10 12:13:14;;;;;;;9.38;1.85;;;;;;;11.49;94.91;99862.36;1690244;83;21020;-66
2022/11/10 12:16:02;;;;;;;9.65;2.37;;;;;;;11.47;95.11;99872.03;1692578;84;20982;-66